Thunder radar more information blitzortung!


Radar de pluja more information rain snow radar


Visita la nostra xarxa de llocs de meteo:

Template documentation
and downloads

And another site



No particular awareness of the weather is required.    There are no Weather-warnings

Pagina Historial Weather Underground text

Diari Resum Octubre 11, 2017 Unitats:  Mètric    Imperial   Tant
« Previous Dia
SegĂźent Dia »
Diari Setmana Mensual Anual Personalitzada
  Maxima: Minima: Media:
Temperatura: 26.2 °C 13.3 °C 20.5 °C
Punt de rosada: 17.2 °C 11.7 °C 15.1 °C
Humitat: 91 % 53 % 73 %
Wind Speed: 20.4 km/h 0.0 km/h 5.6 km/h
RĂ fegues de vent: 20.4 km/h - -
Vent:- - SW
Pression baro: 1023.9 hPa 1020.9 hPa -
Precipitacions: 0.0 mm    
Historical Graphs
 
 
Dades de taula per Octubre 11, 2017
Temps Temperatura Punt de rosada Pression baro Vent Wind Speed RĂ fegues de vent Humitat Rainfall Rate (Hourly)
00:00 15.0 °C 13.0 °C 1021.9 hPa Calm   1.6 km/h 88 % 0.0 mm
00:02 17.8 °C 14.9 °C 1021.9 hPa Calm     83 % 0.0 mm
00:07 17.7 °C 14.8 °C 1021.9 hPa Calm     83 % 0.0 mm
00:10 14.8 °C 12.8 °C 1021.9 hPa SW 1.6 km/h 3.2 km/h 88 % 0.0 mm
00:12 17.6 °C 14.7 °C 1021.9 hPa Calm     83 % 0.0 mm
00:20 14.7 °C 12.9 °C 1021.9 hPa Calm   1.6 km/h 89 % 0.0 mm
00:30 14.6 °C 12.8 °C 1021.9 hPa Calm     89 % 0.0 mm
00:40 14.5 °C 12.7 °C 1021.9 hPa Calm     89 % 0.0 mm
00:50 14.4 °C 12.6 °C 1021.9 hPa Calm     89 % 0.0 mm
01:00 14.3 °C 12.5 °C 1021.9 hPa Calm     89 % 0.0 mm
01:10 14.1 °C 12.3 °C 1021.9 hPa Calm     89 % 0.0 mm
01:20 14.1 °C 12.3 °C 1021.9 hPa Calm     89 % 0.0 mm
01:30 13.8 °C 12.0 °C 1021.9 hPa Calm   1.6 km/h 89 % 0.0 mm
01:40 13.7 °C 11.9 °C 1021.9 hPa SW 1.6 km/h 3.2 km/h 89 % 0.0 mm
01:50 13.8 °C 12.0 °C 1021.9 hPa Calm   3.2 km/h 89 % 0.0 mm
02:00 13.7 °C 11.9 °C 1021.9 hPa Calm     89 % 0.0 mm
02:10 13.6 °C 11.8 °C 1021.9 hPa Calm   1.6 km/h 89 % 0.0 mm
02:20 13.7 °C 12.1 °C 1021.9 hPa SW 1.6 km/h 3.2 km/h 90 % 0.0 mm
02:30 13.5 °C 11.9 °C 1021.9 hPa Calm     90 % 0.0 mm
02:50 13.4 °C 11.8 °C 1021.9 hPa SW 1.6 km/h 1.6 km/h 90 % 0.0 mm
03:00 13.3 °C 11.7 °C 1020.9 hPa Calm     90 % 0.0 mm
03:10 13.4 °C 11.8 °C 1020.9 hPa Calm   1.6 km/h 90 % 0.0 mm
03:20 13.6 °C 12.2 °C 1021.9 hPa SW 1.6 km/h 3.2 km/h 91 % 0.0 mm
03:30 13.7 °C 12.3 °C 1020.9 hPa Calm     91 % 0.0 mm
03:40 13.7 °C 12.1 °C 1020.9 hPa Calm   3.2 km/h 90 % 0.0 mm
03:50 13.8 °C 12.2 °C 1021.9 hPa SW 1.6 km/h 1.6 km/h 90 % 0.0 mm
04:00 14.0 °C 12.4 °C 1021.9 hPa SW 1.6 km/h 3.2 km/h 90 % 0.0 mm
04:20 14.3 °C 12.7 °C 1022.9 hPa SW 3.2 km/h 3.2 km/h 90 % 0.0 mm
04:40 14.9 °C 13.3 °C 1022.9 hPa SW 3.2 km/h 4.8 km/h 90 % 0.0 mm
04:50 15.5 °C 13.9 °C 1022.9 hPa SW 1.6 km/h 4.8 km/h 90 % 0.0 mm
05:00 15.9 °C 14.1 °C 1022.9 hPa SW 1.6 km/h 3.2 km/h 89 % 0.0 mm
05:10 16.4 °C 14.4 °C 1022.9 hPa SW 1.6 km/h 4.8 km/h 88 % 0.0 mm
05:20 17.1 °C 14.9 °C 1022.9 hPa Calm   3.2 km/h 87 % 0.0 mm
10:29 18.1 °C 15.3 °C 1022.9 hPa SSE 3.5 km/h 3.5 km/h 84 % 0.0 mm
10:30 18.1 °C 15.3 °C 1022.9 hPa SE 3.7 km/h 3.7 km/h 84 % 0.0 mm
10:35 18.5 °C 15.6 °C 1022.9 hPa SE 5.8 km/h 5.8 km/h 83 % 0.0 mm
10:40 19.0 °C 15.4 °C 1022.9 hPa ESE 3.7 km/h 3.7 km/h 80 % 0.0 mm
10:45 19.5 °C 15.8 °C 1023.9 hPa South 3.7 km/h 3.7 km/h 79 % 0.0 mm
10:50 19.9 °C 16.2 °C 1023.9 hPa SW 3.7 km/h 3.7 km/h 79 % 0.0 mm
10:55 20.3 °C 15.9 °C 1023.9 hPa SE 3.7 km/h 3.7 km/h 76 % 0.0 mm
11:00 20.5 °C 16.3 °C 1023.9 hPa ESE 3.9 km/h 3.9 km/h 77 % 0.0 mm
11:05 20.3 °C 15.7 °C 1023.9 hPa ENE 3.7 km/h 3.7 km/h 75 % 0.0 mm
11:10 20.3 °C 15.7 °C 1023.9 hPa East 3.9 km/h 3.9 km/h 75 % 0.0 mm
11:15 20.6 °C 16.0 °C 1022.9 hPa ESE 3.7 km/h 3.7 km/h 75 % 0.0 mm
11:20 21.1 °C 16.3 °C 1022.9 hPa SSE 3.7 km/h 3.7 km/h 74 % 0.0 mm
11:25 21.4 °C 16.6 °C 1022.9 hPa West 3.7 km/h 3.7 km/h 74 % 0.0 mm
11:30 21.4 °C 16.3 °C 1022.9 hPa ESE 3.9 km/h 3.9 km/h 73 % 0.0 mm
11:35 21.7 °C 16.2 °C 1022.9 hPa SSE 5.6 km/h 5.6 km/h 71 % 0.0 mm
11:40 22.1 °C 16.8 °C 1022.9 hPa NW 5.6 km/h 5.6 km/h 72 % 0.0 mm
11:45 22.6 °C 17.1 °C 1022.9 hPa SSW 2.3 km/h   71 % 0.0 mm
11:50 22.5 °C 16.8 °C 1022.9 hPa SW 4.2 km/h 4.2 km/h 70 % 0.0 mm
11:55 22.2 °C 16.4 °C 1022.9 hPa South 5.6 km/h 5.6 km/h 70 % 0.0 mm
12:00 22.6 °C 16.6 °C 1022.9 hPa SSE 7.4 km/h 7.4 km/h 69 % 0.0 mm
12:05 23.1 °C 17.1 °C 1022.9 hPa WNW 7.4 km/h 7.4 km/h 69 % 0.0 mm
12:10 22.8 °C 16.8 °C 1022.9 hPa South 5.6 km/h 5.6 km/h 69 % 0.0 mm
12:15 23.2 °C 16.9 °C 1022.9 hPa SW 7.4 km/h 7.4 km/h 68 % 0.0 mm
12:20 23.4 °C 17.2 °C 1022.9 hPa SW 11.1 km/h 11.1 km/h 68 % 0.0 mm
12:25 23.7 °C 17.2 °C 1022.9 hPa SW 7.9 km/h 7.9 km/h 67 % 0.0 mm
12:30 24.3 °C 17.1 °C 1022.9 hPa SSW 4.7 km/h 4.7 km/h 64 % 0.0 mm
12:35 24.2 °C 16.7 °C 1022.9 hPa SSW 11.1 km/h 11.1 km/h 63 % 0.0 mm
12:40 24.0 °C 16.5 °C 1022.9 hPa South 9.3 km/h 9.3 km/h 63 % 0.0 mm
12:45 23.9 °C 16.7 °C 1022.9 hPa SW 9.3 km/h 9.3 km/h 64 % 0.0 mm
12:50 23.7 °C 16.5 °C 1022.9 hPa SW 11.1 km/h 11.1 km/h 64 % 0.0 mm
12:55 24.2 °C 16.7 °C 1022.9 hPa SSW 12.6 km/h 12.6 km/h 63 % 0.0 mm
13:00 24.6 °C 16.6 °C 1022.9 hPa SW 8.7 km/h 8.7 km/h 61 % 0.0 mm
13:05 24.5 °C 16.5 °C 1022.9 hPa South 5.6 km/h 5.6 km/h 61 % 0.0 mm
13:10 24.3 °C 16.3 °C 1022.9 hPa West 6.4 km/h 6.4 km/h 61 % 0.0 mm
13:15 24.6 °C 16.6 °C 1022.9 hPa SW 7.4 km/h 7.4 km/h 61 % 0.0 mm
13:20 24.6 °C 16.3 °C 1022.9 hPa SSE 3.7 km/h 3.7 km/h 60 % 0.0 mm
13:25 24.7 °C 16.2 °C 1022.9 hPa SSE 11.1 km/h 11.1 km/h 59 % 0.0 mm
13:30 25.4 °C 16.3 °C 1021.9 hPa South 4.2 km/h 4.2 km/h 57 % 0.0 mm
13:35 25.6 °C 16.4 °C 1021.9 hPa SW 9.3 km/h 9.3 km/h 57 % 0.0 mm
13:40 25.5 °C 16.3 °C 1021.9 hPa SSW 9.3 km/h 9.3 km/h 57 % 0.0 mm
13:45 25.7 °C 16.3 °C 1021.9 hPa SSW 5.6 km/h 5.6 km/h 56 % 0.0 mm
13:50 25.7 °C 16.0 °C 1021.9 hPa WSW 11.1 km/h 11.1 km/h 55 % 0.0 mm
13:55 26.0 °C 16.3 °C 1021.9 hPa SW 5.6 km/h 5.6 km/h 55 % 0.0 mm
14:00 26.2 °C 16.7 °C 1021.9 hPa West 11.1 km/h 11.1 km/h 56 % 0.0 mm
14:05 25.4 °C 15.4 °C 1021.9 hPa SW 7.6 km/h 7.6 km/h 54 % 0.0 mm
14:10 25.9 °C 15.9 °C 1021.9 hPa SW 7.4 km/h 7.4 km/h 54 % 0.0 mm
14:15 25.8 °C 15.8 °C 1021.9 hPa South 9.3 km/h 9.3 km/h 54 % 0.0 mm
14:20 26.1 °C 16.1 °C 1021.9 hPa SW 13.0 km/h 13.0 km/h 54 % 0.0 mm
14:25 25.8 °C 15.8 °C 1021.9 hPa SW 11.1 km/h 11.1 km/h 54 % 0.0 mm
14:30 25.7 °C 15.7 °C 1021.9 hPa SW 5.6 km/h 5.6 km/h 54 % 0.0 mm
14:35 25.7 °C 15.7 °C 1021.9 hPa WSW 14.8 km/h 14.8 km/h 54 % 0.0 mm
14:40 25.8 °C 15.8 °C 1021.9 hPa SSE 11.1 km/h 11.1 km/h 54 % 0.0 mm
14:45 25.7 °C 15.7 °C 1021.9 hPa WSW 11.1 km/h 11.1 km/h 54 % 0.0 mm
14:50 25.7 °C 15.7 °C 1021.9 hPa South 7.6 km/h 7.6 km/h 54 % 0.0 mm
14:55 25.4 °C 15.4 °C 1021.9 hPa SW 14.8 km/h 14.8 km/h 54 % 0.0 mm
15:00 25.3 °C 15.3 °C 1021.9 hPa SSE 13.0 km/h 13.0 km/h 54 % 0.0 mm
15:05 25.6 °C 15.6 °C 1021.9 hPa SSW 9.3 km/h 9.3 km/h 54 % 0.0 mm
15:10 25.6 °C 15.6 °C 1021.9 hPa SW 11.1 km/h 11.1 km/h 54 % 0.0 mm
15:20 25.6 °C 15.6 °C 1021.9 hPa WSW 15.1 km/h 15.1 km/h 54 % 0.0 mm
15:25 25.3 °C 15.3 °C 1021.9 hPa SSE 14.8 km/h 14.8 km/h 54 % 0.0 mm
15:30 25.6 °C 15.9 °C 1020.9 hPa WSW 9.3 km/h 9.3 km/h 55 % 0.0 mm
15:35 25.7 °C 15.7 °C 1020.9 hPa West 7.4 km/h 7.4 km/h 54 % 0.0 mm
15:40 25.8 °C 15.8 °C 1020.9 hPa SW 9.3 km/h 9.3 km/h 54 % 0.0 mm
15:45 25.7 °C 15.7 °C 1020.9 hPa SSW 7.4 km/h 7.4 km/h 54 % 0.0 mm
15:50 25.6 °C 15.6 °C 1020.9 hPa SSE 13.0 km/h 13.0 km/h 54 % 0.0 mm
15:55 25.5 °C 15.5 °C 1020.9 hPa SSW 16.1 km/h 16.1 km/h 54 % 0.0 mm
16:00 25.5 °C 15.5 °C 1021.9 hPa WSW 15.6 km/h 15.6 km/h 54 % 0.0 mm
16:05 25.4 °C 15.1 °C 1021.9 hPa SW 16.7 km/h 16.7 km/h 53 % 0.0 mm
16:10 25.4 °C 15.1 °C 1021.9 hPa SSW 10.0 km/h 10.0 km/h 53 % 0.0 mm
16:11 25.4 °C 15.1 °C 1021.9 hPa SSW 9.3 km/h 9.3 km/h 53 % 0.0 mm
16:16 25.5 °C 15.5 °C 1020.9 hPa South 9.3 km/h 9.3 km/h 54 % 0.0 mm
16:21 25.3 °C 15.1 °C 1020.9 hPa SW 9.0 km/h 9.0 km/h 53 % 0.0 mm
16:26 25.5 °C 15.5 °C 1020.9 hPa SSE 13.0 km/h 13.0 km/h 54 % 0.0 mm
16:36 25.6 °C 15.6 °C 1021.9 hPa SW 11.1 km/h 11.1 km/h 54 % 0.0 mm
16:41 25.5 °C 15.5 °C 1021.9 hPa WSW 9.3 km/h 9.3 km/h 54 % 0.0 mm
16:46 25.4 °C 15.4 °C 1020.9 hPa SSE 14.8 km/h 14.8 km/h 54 % 0.0 mm
16:51 25.2 °C 15.2 °C 1020.9 hPa South 13.0 km/h 13.0 km/h 54 % 0.0 mm
16:56 25.1 °C 15.1 °C 1020.9 hPa SW 13.0 km/h 13.0 km/h 54 % 0.0 mm
17:01 25.2 °C 15.2 °C 1021.9 hPa WSW 20.4 km/h 20.4 km/h 54 % 0.0 mm
17:06 24.9 °C 15.2 °C 1021.9 hPa WSW 13.0 km/h 13.0 km/h 55 % 0.0 mm
17:11 24.9 °C 15.2 °C 1021.9 hPa South 14.8 km/h 14.8 km/h 55 % 0.0 mm
17:16 24.9 °C 15.5 °C 1021.9 hPa WSW 9.7 km/h 9.7 km/h 56 % 0.0 mm
17:21 24.7 °C 15.3 °C 1021.9 hPa SW 13.0 km/h 13.0 km/h 56 % 0.0 mm
17:26 24.4 °C 15.3 °C 1021.9 hPa SW 16.7 km/h 16.7 km/h 57 % 0.0 mm
17:31 24.5 °C 15.4 °C 1020.9 hPa SW 10.0 km/h 10.0 km/h 57 % 0.0 mm
17:36 24.2 °C 15.2 °C 1020.9 hPa SSW 16.7 km/h 16.7 km/h 57 % 0.0 mm
17:41 24.0 °C 15.2 °C 1020.9 hPa SW 9.3 km/h 9.3 km/h 58 % 0.0 mm
17:46 24.0 °C 15.2 °C 1021.9 hPa SW 9.3 km/h 9.3 km/h 58 % 0.0 mm
17:51 23.8 °C 15.6 °C 1021.9 hPa SW 16.7 km/h 16.7 km/h 60 % 0.0 mm
17:56 23.6 °C 15.6 °C 1021.9 hPa South 9.3 km/h 9.3 km/h 61 % 0.0 mm
18:01 23.6 °C 15.6 °C 1021.9 hPa SW 13.7 km/h 13.7 km/h 61 % 0.0 mm
18:06 23.6 °C 15.6 °C 1021.9 hPa South 7.4 km/h 7.4 km/h 61 % 0.0 mm
18:11 23.6 °C 15.6 °C 1021.9 hPa West 7.4 km/h 7.4 km/h 61 % 0.0 mm
18:16 23.2 °C 15.5 °C 1021.9 hPa SW 14.8 km/h 14.8 km/h 62 % 0.0 mm
18:21 23.1 °C 15.4 °C 1021.9 hPa WSW 9.3 km/h 9.3 km/h 62 % 0.0 mm
18:26 23.1 °C 15.4 °C 1021.9 hPa SW 9.3 km/h 9.3 km/h 62 % 0.0 mm
18:31 22.8 °C 15.4 °C 1021.9 hPa WSW 9.3 km/h 9.3 km/h 63 % 0.0 mm
18:36 22.7 °C 15.3 °C 1021.9 hPa South 7.4 km/h 7.4 km/h 63 % 0.0 mm
18:41 22.5 °C 15.3 °C 1021.9 hPa West 7.4 km/h 7.4 km/h 64 % 0.0 mm
18:46 22.3 °C 15.4 °C 1021.9 hPa SW 13.0 km/h 13.0 km/h 65 % 0.0 mm
18:51 22.1 °C 15.4 °C 1021.9 hPa WSW 11.1 km/h 11.1 km/h 66 % 0.0 mm
18:56 22.0 °C 15.3 °C 1021.9 hPa West 11.1 km/h 11.1 km/h 66 % 0.0 mm
19:01 21.8 °C 15.4 °C 1021.9 hPa SW 9.3 km/h 9.3 km/h 67 % 0.0 mm
19:06 21.6 °C 15.4 °C 1021.9 hPa SSW 7.4 km/h 7.4 km/h 68 % 0.0 mm
19:11 21.5 °C 15.3 °C 1021.9 hPa SW 9.7 km/h 9.7 km/h 68 % 0.0 mm
19:16 21.4 °C 15.5 °C 1021.9 hPa SW 7.4 km/h 7.4 km/h 69 % 0.0 mm
19:20 18.3 °C 15.6 °C 1022.9 hPa Calm     84 % 0.0 mm
19:21 21.3 °C 15.4 °C 1021.9 hPa WSW 11.1 km/h 11.1 km/h 69 % 0.0 mm
19:26 21.1 °C 15.4 °C 1021.9 hPa South 9.5 km/h 9.5 km/h 70 % 0.0 mm
19:30 18.2 °C 15.6 °C 1023.9 hPa Calm     85 % 0.0 mm
19:36 20.9 °C 15.4 °C 1021.9 hPa SSW 5.8 km/h 5.8 km/h 71 % 0.0 mm
19:40 18.2 °C 15.6 °C 1023.9 hPa Calm   1.6 km/h 85 % 0.0 mm
19:41 20.8 °C 15.3 °C 1021.9 hPa WSW 7.4 km/h 7.4 km/h 71 % 0.0 mm
19:46 20.6 °C 15.2 °C 1021.9 hPa SW 11.1 km/h 11.1 km/h 71 % 0.0 mm
19:50 18.1 °C 15.6 °C 1022.9 hPa Calm     85 % 0.0 mm
19:51 20.5 °C 15.3 °C 1021.9 hPa SW 7.4 km/h 7.4 km/h 72 % 0.0 mm
19:56 20.4 °C 15.2 °C 1021.9 hPa WSW 9.3 km/h 9.3 km/h 72 % 0.0 mm
20:00 17.9 °C 15.5 °C 1023.9 hPa Calm     86 % 0.0 mm
20:06 20.3 °C 15.3 °C 1021.9 hPa West 7.4 km/h 7.4 km/h 73 % 0.0 mm
20:10 17.8 °C 15.4 °C 1023.9 hPa Calm   1.6 km/h 86 % 0.0 mm
20:11 20.2 °C 15.2 °C 1021.9 hPa WSW 9.3 km/h 9.3 km/h 73 % 0.0 mm
20:16 20.1 °C 15.1 °C 1022.9 hPa WSW 9.3 km/h 9.3 km/h 73 % 0.0 mm
20:20 17.6 °C 15.2 °C 1022.9 hPa Calm     86 % 0.0 mm
20:21 20.1 °C 15.3 °C 1022.9 hPa SW 3.9 km/h 3.9 km/h 74 % 0.0 mm
20:26 20.0 °C 15.2 °C 1022.9 hPa SW 5.6 km/h 5.6 km/h 74 % 0.0 mm
20:30 17.5 °C 15.1 °C 1022.9 hPa Calm     86 % 0.0 mm
20:31 19.9 °C 15.3 °C 1022.9 hPa SSW 5.6 km/h 5.6 km/h 75 % 0.0 mm
20:36 19.9 °C 15.3 °C 1022.9 hPa South 5.8 km/h 5.8 km/h 75 % 0.0 mm
20:40 17.4 °C 15.1 °C 1022.9 hPa Calm     86 % 0.0 mm
20:41 19.7 °C 15.3 °C 1022.9 hPa SW 5.6 km/h 5.6 km/h 76 % 0.0 mm
20:46 19.7 °C 15.3 °C 1022.9 hPa SW 5.6 km/h 5.6 km/h 76 % 0.0 mm
20:50 17.3 °C 15.1 °C 1023.9 hPa Calm     87 % 0.0 mm
20:51 19.6 °C 15.3 °C 1022.9 hPa WSW 3.7 km/h 3.7 km/h 76 % 0.0 mm
20:56 19.5 °C 15.2 °C 1022.9 hPa SSW 1.9 km/h 1.9 km/h 76 % 0.0 mm
21:00 17.1 °C 14.9 °C 1023.9 hPa NE 1.6 km/h 3.2 km/h 87 % 0.0 mm
21:01 19.5 °C 15.3 °C 1022.9 hPa WSW 3.7 km/h 3.7 km/h 77 % 0.0 mm
21:06 19.5 °C 15.3 °C 1022.9 hPa West 7.4 km/h 7.4 km/h 77 % 0.0 mm
21:10 16.8 °C 14.6 °C 1023.9 hPa Calm   1.6 km/h 87 % 0.0 mm
21:16 19.3 °C 15.2 °C 1022.9 hPa WSW 1.9 km/h   77 % 0.0 mm
21:20 16.7 °C 14.5 °C 1023.9 hPa Calm   3.2 km/h 87 % 0.0 mm
21:21 19.3 °C 15.2 °C 1022.9 hPa SW 3.7 km/h 3.7 km/h 77 % 0.0 mm
21:26 19.2 °C 15.3 °C 1022.9 hPa WSW 2.3 km/h 2.3 km/h 78 % 0.0 mm
21:30 16.6 °C 14.6 °C 1023.9 hPa Calm     88 % 0.0 mm
21:31 19.2 °C 15.1 °C 1022.9 hPa SW 5.6 km/h 5.6 km/h 77 % 0.0 mm
21:36 19.1 °C 15.2 °C 1022.9 hPa WSW 4.2 km/h 4.2 km/h 78 % 0.0 mm
21:40 16.4 °C 14.4 °C 1023.9 hPa Calm     88 % 0.0 mm
21:41 19.1 °C 15.2 °C 1022.9 hPa WSW 3.7 km/h 3.7 km/h 78 % 0.0 mm
21:46 19.0 °C 15.3 °C 1022.9 hPa SW 4.7 km/h 4.7 km/h 79 % 0.0 mm
21:50 16.3 °C 14.3 °C 1023.9 hPa Calm     88 % 0.0 mm
21:51 19.0 °C 15.1 °C 1022.9 hPa WNW 3.9 km/h 3.9 km/h 78 % 0.0 mm
21:56 19.0 °C 15.3 °C 1022.9 hPa West 5.6 km/h 5.6 km/h 79 % 0.0 mm
22:00 16.3 °C 14.3 °C 1022.9 hPa Calm     88 % 0.0 mm
22:01 19.0 °C 15.3 °C 1022.9 hPa SW 3.7 km/h 3.7 km/h 79 % 0.0 mm
22:06 19.0 °C 15.3 °C 1022.9 hPa SW 3.7 km/h 3.7 km/h 79 % 0.0 mm
22:10 16.2 °C 14.4 °C 1022.9 hPa Calm     89 % 0.0 mm
22:11 19.0 °C 15.4 °C 1022.9 hPa SW 2.3 km/h 2.3 km/h 80 % 0.0 mm
22:16 18.9 °C 15.6 °C 1023.9 hPa SW 4.7 km/h 4.7 km/h 81 % 0.0 mm
22:20 16.2 °C 14.4 °C 1022.9 hPa Calm     89 % 0.0 mm
22:21 18.9 °C 15.6 °C 1023.9 hPa SW 3.7 km/h 3.7 km/h 81 % 0.0 mm
22:26 18.8 °C 15.4 °C 1023.9 hPa SW 3.7 km/h 3.7 km/h 81 % 0.0 mm
22:30 16.1 °C 14.3 °C 1022.9 hPa Calm     89 % 0.0 mm
22:31 18.8 °C 15.7 °C 1023.9 hPa WSW 3.5 km/h 3.5 km/h 82 % 0.0 mm
22:36 18.7 °C 15.6 °C 1023.9 hPa WSW 1.9 km/h   82 % 0.0 mm
22:40 15.8 °C 14.0 °C 1022.9 hPa Calm     89 % 0.0 mm
22:41 18.7 °C 15.6 °C 1023.9 hPa West 1.9 km/h   82 % 0.0 mm
22:46 18.7 °C 15.6 °C 1023.9 hPa West 3.7 km/h   82 % 0.0 mm
22:51 18.7 °C 15.8 °C 1023.9 hPa Calm     83 % 0.0 mm
22:52 18.7 °C 15.8 °C 1023.9 hPa Calm     83 % 0.0 mm
22:57 18.6 °C 15.7 °C 1023.9 hPa Calm     83 % 0.0 mm
23:00 15.5 °C 13.5 °C 1023.9 hPa SSE 1.6 km/h 3.2 km/h 88 % 0.0 mm
23:02 18.6 °C 15.7 °C 1023.9 hPa Calm     83 % 0.0 mm
23:07 18.6 °C 15.7 °C 1023.9 hPa West 2.6 km/h 2.6 km/h 83 % 0.0 mm
23:10 15.5 °C 13.7 °C 1023.9 hPa SW 1.6 km/h 3.2 km/h 89 % 0.0 mm
23:12 18.6 °C 15.7 °C 1023.9 hPa West 3.7 km/h 3.7 km/h 83 % 0.0 mm
23:17 18.6 °C 15.4 °C 1023.9 hPa West 3.7 km/h 3.7 km/h 82 % 0.0 mm
23:20 15.4 °C 13.6 °C 1023.9 hPa SW 1.6 km/h 3.2 km/h 89 % 0.0 mm
23:22 18.5 °C 15.6 °C 1023.9 hPa Calm     83 % 0.0 mm
23:27 18.5 °C 15.6 °C 1023.9 hPa West 1.9 km/h   83 % 0.0 mm
23:32 18.5 °C 15.6 °C 1023.9 hPa West 3.7 km/h 3.7 km/h 83 % 0.0 mm
23:37 18.5 °C 15.6 °C 1023.9 hPa West 2.3 km/h 2.3 km/h 83 % 0.0 mm
23:40 15.3 °C 13.5 °C 1023.9 hPa SW 1.6 km/h 3.2 km/h 89 % 0.0 mm
23:42 18.5 °C 15.6 °C 1023.9 hPa West 2.3 km/h 2.3 km/h 83 % 0.0 mm
23:47 18.5 °C 15.7 °C 1023.9 hPa Calm     84 % 0.0 mm
23:50 15.1 °C 13.4 °C 1023.9 hPa Calm   3.2 km/h 90 % 0.0 mm
23:52 18.4 °C 15.7 °C 1023.9 hPa Calm     84 % 0.0 mm
23:57 18.3 °C 15.6 °C 1023.9 hPa Calm     84 % 0.0 mm
Meteo Sesrovires
Elogis d' Weather Underground - 3.75 mb

Guio original per  Jim McMurry - jmcmurry@mwt.net Adaptat per a la plantilla per  Wim van der Kuil - Leuven-Template.eu

Trobareu la nostra informacio del temps tambe a:

Weather Underground

AWEKAS